createdAt,value
2017-10-04T00:00:37.221Z,101013
2017-10-04T00:03:07.431Z,101007
2017-10-04T00:05:37.293Z,101015
2017-10-04T00:08:07.555Z,101020
2017-10-04T00:10:37.426Z,101019
2017-10-04T00:13:07.689Z,101019
2017-10-04T00:15:37.570Z,101010
2017-10-04T00:18:07.471Z,101013
2017-10-04T00:20:37.574Z,101012
2017-10-04T00:23:07.438Z,101002
2017-10-04T00:25:37.669Z,101003
2017-10-04T00:28:07.554Z,100997
2017-10-04T00:30:38.018Z,100992
2017-10-04T00:33:07.891Z,100999
2017-10-04T00:35:38.130Z,101006
2017-10-04T00:38:08.014Z,101002
2017-10-04T00:40:38.703Z,101007
2017-10-04T00:43:08.578Z,101004
2017-10-04T00:45:38.490Z,101002
2017-10-04T00:48:08.373Z,100994
2017-10-04T00:50:38.533Z,100999
2017-10-04T00:53:08.771Z,100998
2017-10-04T00:55:38.621Z,100996
2017-10-04T00:58:08.507Z,100984
2017-10-04T01:00:38.459Z,100998
2017-10-04T01:03:08.327Z,100986
2017-10-04T01:05:38.652Z,100992
2017-10-04T01:08:08.586Z,101000
2017-10-04T01:10:38.881Z,100995
2017-10-04T01:13:08.743Z,100994
2017-10-04T01:15:39.018Z,100993
2017-10-04T01:18:08.946Z,100998
2017-10-04T01:20:39.343Z,100988
2017-10-04T01:23:09.203Z,100995
2017-10-04T01:25:39.514Z,100990
2017-10-04T01:28:09.378Z,100986
2017-10-04T01:30:39.718Z,100982
2017-10-04T01:33:09.594Z,100977
2017-10-04T01:35:39.530Z,100965
2017-10-04T01:38:09.404Z,100967
2017-10-04T01:40:39.406Z,100973
2017-10-04T01:43:09.697Z,100976
2017-10-04T01:45:39.572Z,100992
2017-10-04T01:48:09.474Z,100994
2017-10-04T01:50:39.361Z,100997
2017-10-04T01:53:09.315Z,100987
2017-10-04T01:55:39.585Z,100993
2017-10-04T01:58:09.462Z,100991
2017-10-04T02:00:39.921Z,100986
2017-10-04T02:03:09.786Z,100986
2017-10-04T02:05:40.061Z,100981
2017-10-04T02:08:09.934Z,100985
2017-10-04T02:10:40.299Z,100981
2017-10-04T02:13:10.182Z,100968
2017-10-04T02:15:40.439Z,100975
2017-10-04T02:18:10.306Z,100978
2017-10-04T02:20:40.582Z,100978
2017-10-04T02:23:10.454Z,100976
2017-10-04T02:25:40.714Z,100962
2017-10-04T02:28:10.606Z,100956
2017-10-04T02:30:40.523Z,100970
2017-10-04T02:33:10.378Z,100974
2017-10-04T02:35:40.235Z,100968
2017-10-04T02:38:10.457Z,100977
2017-10-04T02:40:40.618Z,100987
2017-10-04T02:43:10.852Z,100979
2017-10-04T02:45:40.706Z,100980
2017-10-04T02:48:10.610Z,100996
2017-10-04T02:50:40.750Z,100985
2017-10-04T02:53:10.613Z,100980
2017-10-04T02:55:40.827Z,100981
2017-10-04T02:58:10.728Z,100973
2017-10-04T03:00:41.150Z,100964
2017-10-04T03:03:11.010Z,100950
2017-10-04T03:05:41.248Z,100938
2017-10-04T03:08:11.186Z,100938
2017-10-04T03:10:41.486Z,100932
2017-10-04T03:13:11.346Z,100952
2017-10-04T03:15:41.625Z,100947
2017-10-04T03:18:11.495Z,100937
2017-10-04T03:20:41.867Z,100934
2017-10-04T03:23:11.725Z,100931
2017-10-04T03:25:41.709Z,100930
2017-10-04T03:28:11.594Z,100939
2017-10-04T03:30:41.448Z,100928
2017-10-04T03:33:11.679Z,100919
2017-10-04T03:35:41.595Z,100904
2017-10-04T03:38:11.552Z,100901
2017-10-04T03:40:41.410Z,100906
2017-10-04T03:43:11.267Z,100897
2017-10-04T03:45:41.462Z,100898
2017-10-04T03:48:11.332Z,100893
2017-10-04T03:50:41.749Z,100904
2017-10-04T03:53:11.619Z,100887
2017-10-04T03:55:41.838Z,100894
2017-10-04T03:58:11.683Z,100878
2017-10-04T04:00:41.554Z,100881
2017-10-04T04:03:12.305Z,100875
2017-10-04T04:05:42.193Z,100863
2017-10-04T04:08:12.486Z,100873
2017-10-04T04:10:42.354Z,100859
2017-10-04T04:13:12.725Z,100852
2017-10-04T04:15:42.639Z,100851
2017-10-04T04:18:12.493Z,100846
2017-10-04T04:23:45.029Z,100844
2017-10-04T04:26:26.749Z,100839
2017-10-04T04:29:02.509Z,100845
2017-10-04T04:31:44.180Z,100849
2017-10-04T04:34:20.218Z,100844
2017-10-04T04:36:50.133Z,100835
2017-10-04T04:39:26.254Z,100831
2017-10-04T04:44:54.298Z,100828
2017-10-04T04:47:24.154Z,100829
2017-10-04T04:49:54.394Z,100828
2017-10-04T04:55:25.331Z,100830
2017-10-04T04:58:01.266Z,100829
2017-10-04T05:00:31.126Z,100825
2017-10-04T05:03:12.601Z,100825
2017-10-04T05:05:42.554Z,100833
2017-10-04T05:08:18.333Z,100832
2017-10-04T05:10:48.677Z,100831
2017-10-04T05:13:45.149Z,100829
2017-10-04T05:16:15.015Z,100827
2017-10-04T05:18:44.892Z,100816
2017-10-04T05:21:14.814Z,100826
2017-10-04T05:23:44.685Z,100829
2017-10-04T05:26:20.725Z,100821
2017-10-04T05:28:50.607Z,100815
2017-10-04T05:31:21.426Z,100809
2017-10-04T05:33:51.318Z,100817
2017-10-04T05:36:21.639Z,100810
2017-10-04T05:38:51.538Z,100805
2017-10-04T05:41:21.790Z,100818
2017-10-04T05:46:55.050Z,100817
2017-10-04T05:49:24.953Z,100823
2017-10-04T05:52:01.057Z,100829
2017-10-04T05:54:30.910Z,100823
2017-10-04T06:00:06.520Z,100836
2017-10-04T06:05:43.262Z,100826
2017-10-04T06:08:19.126Z,100822
2017-10-04T06:10:48.988Z,100823
2017-10-04T06:13:18.865Z,100808
2017-10-04T06:15:48.723Z,100826
2017-10-04T06:21:20.785Z,100824
2017-10-04T06:23:50.646Z,100820
2017-10-04T06:29:18.566Z,100828
2017-10-04T06:31:48.424Z,100824
2017-10-04T06:34:18.307Z,100817
2017-10-04T06:36:48.534Z,100813
2017-10-04T06:39:18.976Z,100808
2017-10-04T06:41:48.836Z,100820
2017-10-04T06:44:19.101Z,100817
2017-10-04T06:49:45.590Z,100814
2017-10-04T06:52:21.236Z,100802
2017-10-04T06:54:57.354Z,100797
2017-10-04T06:57:27.233Z,100811
2017-10-04T07:00:03.456Z,100810
2017-10-04T07:02:33.323Z,100798
2017-10-04T07:05:15.356Z,100797
2017-10-04T07:07:51.164Z,100797
2017-10-04T07:10:27.363Z,100789
2017-10-04T07:13:13.150Z,100759
2017-10-04T07:18:49.386Z,100769
2017-10-04T07:21:19.757Z,100780
2017-10-04T07:23:55.497Z,100772
2017-10-04T07:29:39.274Z,100777
2017-10-04T07:35:19.231Z,100772
2017-10-04T07:38:04.852Z,100775
2017-10-04T07:43:22.108Z,100770
2017-10-04T07:45:57.973Z,100775
2017-10-04T07:48:27.850Z,100774
2017-10-04T07:51:03.674Z,100773
2017-10-04T07:53:33.550Z,100763
2017-10-04T07:56:03.402Z,100754
2017-10-04T07:58:33.810Z,100752
2017-10-04T08:01:03.694Z,100750
2017-10-04T08:03:33.604Z,100748
2017-10-04T08:06:03.461Z,100760
2017-10-04T08:08:33.446Z,100749
2017-10-04T08:11:03.705Z,100755
2017-10-04T08:13:33.582Z,100760
2017-10-04T08:16:03.514Z,100755
2017-10-04T08:18:33.380Z,100756
2017-10-04T08:21:03.764Z,100756
2017-10-04T08:23:33.992Z,100746
2017-10-04T08:26:03.887Z,100746
2017-10-04T08:28:34.093Z,100751
2017-10-04T08:31:03.966Z,100744
2017-10-04T08:33:34.160Z,100740
2017-10-04T08:36:04.030Z,100727
2017-10-04T08:38:34.338Z,100722
2017-10-04T08:41:04.211Z,100727
2017-10-04T08:43:34.438Z,100732
2017-10-04T08:46:04.319Z,100741
2017-10-04T08:48:37.558Z,100745
2017-10-04T08:51:07.454Z,100736
2017-10-04T08:53:37.690Z,100735
2017-10-04T08:56:07.729Z,100727
2017-10-04T08:58:38.002Z,100734
2017-10-04T09:01:07.890Z,100722
2017-10-04T09:03:38.105Z,100731
2017-10-04T09:06:14.737Z,100741
2017-10-04T09:08:44.943Z,100732
2017-10-04T09:11:14.804Z,100739
2017-10-04T09:13:45.028Z,100753
2017-10-04T09:16:14.917Z,100760
2017-10-04T09:18:45.253Z,100741
2017-10-04T09:21:15.131Z,100739
2017-10-04T09:23:45.438Z,100753
2017-10-04T09:26:15.296Z,100760
2017-10-04T09:28:45.578Z,100749
2017-10-04T09:31:15.451Z,100757
2017-10-04T09:33:45.674Z,100749
2017-10-04T09:36:15.569Z,100736
2017-10-04T09:38:45.454Z,100732
2017-10-04T09:41:15.335Z,100725
2017-10-04T09:43:45.335Z,100704
2017-10-04T09:46:15.618Z,100724
2017-10-04T09:48:45.623Z,100709
2017-10-04T09:51:15.835Z,100703
2017-10-04T09:53:45.809Z,100696
2017-10-04T09:56:17.388Z,100693
2017-10-04T09:58:47.517Z,100678
2017-10-04T10:01:17.845Z,100688
2017-10-04T10:03:47.703Z,100680
2017-10-04T10:06:17.575Z,100675
2017-10-04T10:08:47.446Z,100677
2017-10-04T10:11:17.317Z,100677
2017-10-04T10:13:47.602Z,100671
2017-10-04T10:16:17.498Z,100667
2017-10-04T10:18:47.755Z,100688
2017-10-04T10:21:17.623Z,100684
2017-10-04T10:23:47.524Z,100681
2017-10-04T10:26:17.414Z,100686
2017-10-04T10:28:47.272Z,100688
2017-10-04T10:31:17.474Z,100669
2017-10-04T10:33:47.349Z,100660
2017-10-04T10:36:17.565Z,100675
2017-10-04T10:38:47.457Z,100685
2017-10-04T10:41:18.830Z,100680
2017-10-04T10:43:48.749Z,100684
2017-10-04T10:46:19.033Z,100687
2017-10-04T10:48:48.951Z,100686
2017-10-04T10:51:19.357Z,100687
2017-10-04T10:53:49.261Z,100699
2017-10-04T10:56:19.509Z,100690
2017-10-04T10:58:49.401Z,100678
2017-10-04T11:01:19.653Z,100686
2017-10-04T11:03:49.703Z,100681
2017-10-04T11:06:20.364Z,100677
2017-10-04T11:08:51.042Z,100675
2017-10-04T11:11:21.346Z,100694
2017-10-04T11:13:51.506Z,100672
2017-10-04T11:16:21.785Z,100667
2017-10-04T11:18:51.798Z,100661
2017-10-04T11:21:22.432Z,100657
2017-10-04T11:23:52.331Z,100656
2017-10-04T11:26:22.680Z,100652
2017-10-04T11:28:52.579Z,100641
2017-10-04T11:31:22.464Z,100638
2017-10-04T11:33:52.364Z,100505
2017-10-04T11:36:22.615Z,100637
2017-10-04T11:38:52.981Z,100624
2017-10-04T11:41:22.930Z,100638
2017-10-04T11:43:53.216Z,100622
2017-10-04T11:46:23.092Z,100616
2017-10-04T11:48:53.335Z,100611
2017-10-04T11:51:23.192Z,100599
2017-10-04T11:53:53.593Z,100612
2017-10-04T11:56:23.464Z,100618
2017-10-04T11:58:53.700Z,100600
2017-10-04T12:01:23.605Z,100613
2017-10-04T12:03:53.534Z,100613
2017-10-04T12:06:23.447Z,100598
2017-10-04T12:08:53.341Z,100602
2017-10-04T12:11:23.685Z,100586
2017-10-04T12:13:53.746Z,100577
2017-10-04T12:16:24.167Z,100582
2017-10-04T12:18:54.058Z,100586
2017-10-04T12:21:24.322Z,100581
2017-10-04T12:23:54.200Z,100570
2017-10-04T12:26:24.483Z,100579
2017-10-04T12:28:54.370Z,100548
2017-10-04T12:31:24.619Z,100555
2017-10-04T12:33:54.539Z,100540
2017-10-04T12:36:24.767Z,100542
2017-10-04T12:38:54.703Z,100552
2017-10-04T12:41:25.131Z,100552
2017-10-04T12:43:55.007Z,100558
2017-10-04T12:46:25.480Z,100577
2017-10-04T12:48:55.351Z,100561
2017-10-04T12:51:26.296Z,100562
2017-10-04T12:53:56.221Z,100538
2017-10-04T12:56:26.557Z,100544
2017-10-04T12:58:56.437Z,100536
2017-10-04T13:01:26.661Z,100531
2017-10-04T13:03:56.545Z,100538
2017-10-04T13:06:26.813Z,100525
2017-10-04T13:08:56.707Z,100525
2017-10-04T13:11:26.628Z,100527
2017-10-04T13:13:56.519Z,100516
2017-10-04T13:16:26.386Z,100525
2017-10-04T13:18:56.786Z,100502
2017-10-04T13:21:26.930Z,100514
2017-10-04T13:23:57.166Z,100511
2017-10-04T13:26:27.066Z,100496
2017-10-04T13:28:57.386Z,100503
2017-10-04T13:31:27.308Z,100505
2017-10-04T13:33:57.567Z,100505
2017-10-04T13:36:27.474Z,100509
2017-10-04T13:38:57.851Z,100485
2017-10-04T13:41:27.803Z,100496
2017-10-04T13:43:58.191Z,100481
2017-10-04T13:46:28.153Z,100493
2017-10-04T13:48:58.415Z,100488
2017-10-04T13:51:28.327Z,100494
2017-10-04T13:53:58.549Z,100474
2017-10-04T13:56:28.525Z,100489
2017-10-04T13:58:58.872Z,100484
2017-10-04T14:01:28.809Z,100485
2017-10-04T14:03:59.059Z,100470
2017-10-04T14:06:28.952Z,100475
2017-10-04T14:08:59.244Z,100464
2017-10-04T14:11:29.106Z,100449
2017-10-04T14:13:59.403Z,100433
2017-10-04T14:16:29.274Z,100436
2017-10-04T14:18:59.539Z,100448
2017-10-04T14:21:29.449Z,100428
2017-10-04T14:23:59.707Z,100436
2017-10-04T14:26:29.593Z,100293
2017-10-04T14:28:59.501Z,100426
2017-10-04T14:31:29.458Z,100434
2017-10-04T14:33:59.395Z,100432
2017-10-04T14:36:29.650Z,100432
2017-10-04T14:38:59.543Z,100432
2017-10-04T14:41:29.548Z,100416
2017-10-04T14:43:59.416Z,100429
2017-10-04T14:46:29.312Z,100409
2017-10-04T14:48:59.220Z,100428
2017-10-04T14:51:29.109Z,100421
2017-10-04T14:53:59.528Z,100421
2017-10-04T14:56:29.421Z,100412
2017-10-04T14:58:59.712Z,100408
2017-10-04T15:01:29.640Z,100397
2017-10-04T15:03:59.560Z,100415
2017-10-04T15:06:29.475Z,100406
2017-10-04T15:08:59.492Z,100376
2017-10-04T15:11:29.407Z,100390
2017-10-04T15:13:59.352Z,100400
2017-10-04T15:16:29.571Z,100393
2017-10-04T15:18:59.443Z,100398
2017-10-04T15:21:29.702Z,100396
2017-10-04T15:23:59.579Z,100386
2017-10-04T15:26:31.360Z,100395
2017-10-04T15:29:01.310Z,100384
2017-10-04T15:31:31.249Z,100385
2017-10-04T15:34:01.634Z,100387
2017-10-04T15:36:31.566Z,100385
2017-10-04T15:39:01.845Z,100384
2017-10-04T15:41:31.736Z,100382
2017-10-04T15:44:02.028Z,100382
2017-10-04T15:46:31.914Z,100384
2017-10-04T15:49:02.380Z,100370
2017-10-04T15:51:32.307Z,100372
2017-10-04T15:54:03.316Z,100370
2017-10-04T15:56:33.205Z,100361
2017-10-04T15:59:03.534Z,100368
2017-10-04T16:01:33.512Z,100358
2017-10-04T16:04:03.746Z,100363
2017-10-04T16:06:33.728Z,100366
2017-10-04T16:09:04.351Z,100369
2017-10-04T16:11:34.279Z,100348
2017-10-04T16:14:04.530Z,100335
2017-10-04T16:16:34.476Z,100355
2017-10-04T16:19:04.809Z,100348
2017-10-04T16:21:34.694Z,100355
2017-10-04T16:24:04.606Z,100351
2017-10-04T16:26:34.649Z,100349
2017-10-04T16:29:04.558Z,100346
2017-10-04T16:31:34.872Z,100346
2017-10-04T16:34:04.875Z,100353
2017-10-04T16:36:35.246Z,100343
2017-10-04T16:39:05.191Z,100337
2017-10-04T16:41:35.803Z,100330
2017-10-04T16:44:05.876Z,100325
2017-10-04T16:46:36.202Z,100335
2017-10-04T16:49:06.087Z,100131
2017-10-04T16:51:36.438Z,100335
2017-10-04T16:54:06.326Z,100325
2017-10-04T16:56:36.686Z,100335
2017-10-04T16:59:06.581Z,100310
2017-10-04T17:01:36.932Z,100317
2017-10-04T17:04:06.781Z,100308
2017-10-04T17:06:37.159Z,100305
2017-10-04T17:09:07.146Z,100325
2017-10-04T17:11:37.395Z,100311
2017-10-04T17:14:07.288Z,100299
2017-10-04T17:16:38.628Z,100311
2017-10-04T17:19:08.658Z,100304
2017-10-04T17:21:39.055Z,100303
2017-10-04T17:24:09.018Z,100312
2017-10-04T17:26:39.424Z,100306
2017-10-04T17:29:09.404Z,100317
2017-10-04T17:31:39.683Z,100319
2017-10-04T17:34:09.692Z,100320
2017-10-04T17:36:40.009Z,100325
2017-10-04T17:39:09.946Z,100333
2017-10-04T17:41:40.348Z,100323
2017-10-04T17:44:10.273Z,100330
2017-10-04T17:46:40.572Z,100337
2017-10-04T17:49:10.587Z,100323
2017-10-04T17:51:41.883Z,100321
2017-10-04T17:54:11.748Z,100325
2017-10-04T17:56:42.007Z,100330
2017-10-04T17:59:11.988Z,100321
2017-10-04T18:01:42.262Z,100315
2017-10-04T18:04:12.175Z,100322
2017-10-04T18:06:42.546Z,100323
2017-10-04T18:09:12.549Z,100322
2017-10-04T18:11:42.817Z,100315
2017-10-04T18:14:12.714Z,100305
2017-10-04T18:16:43.159Z,100302
2017-10-04T18:19:13.250Z,100288
2017-10-04T18:21:43.605Z,100300
2017-10-04T18:24:13.664Z,100306
2017-10-04T18:26:44.091Z,100313
2017-10-04T18:29:14.423Z,100307
2017-10-04T18:31:44.776Z,100305
2017-10-04T18:34:14.696Z,100297
2017-10-04T18:36:45.082Z,100307
2017-10-04T18:39:15.057Z,100302
2017-10-04T18:41:45.345Z,100316
2017-10-04T18:44:15.290Z,100316
2017-10-04T18:46:45.606Z,100305
2017-10-04T18:49:15.577Z,100301
2017-10-04T18:51:46.181Z,100315
2017-10-04T18:54:16.218Z,100307
2017-10-04T18:56:46.504Z,100305
2017-10-04T18:59:16.419Z,100307
2017-10-04T19:01:46.931Z,100297
2017-10-04T19:04:16.930Z,100300
2017-10-04T19:06:47.357Z,100298
2017-10-04T19:09:17.368Z,100300
2017-10-04T19:11:47.760Z,100302
2017-10-04T19:14:17.797Z,100301
2017-10-04T19:16:48.155Z,100299
2017-10-04T19:19:18.087Z,100307
2017-10-04T19:21:48.421Z,100302
2017-10-04T19:24:18.324Z,100319
2017-10-04T19:26:48.583Z,100322
2017-10-04T19:29:18.466Z,100302
2017-10-04T19:31:48.799Z,100286
2017-10-04T19:34:18.759Z,100293
2017-10-04T19:36:49.198Z,100280
2017-10-04T19:39:19.094Z,100270
2017-10-04T19:41:49.349Z,100272
2017-10-04T19:44:19.251Z,100267
2017-10-04T19:46:49.567Z,100273
2017-10-04T19:49:19.493Z,100266
2017-10-04T19:51:49.864Z,100259
2017-10-04T19:54:19.755Z,100261
2017-10-04T19:56:49.975Z,100259
2017-10-04T19:59:19.862Z,100262
2017-10-04T20:01:50.079Z,100286
2017-10-04T20:04:19.971Z,100282
2017-10-04T20:06:50.210Z,100207
2017-10-04T20:09:22.961Z,100290
2017-10-04T20:11:53.285Z,100297
2017-10-04T20:14:25.410Z,100285
2017-10-04T20:16:55.667Z,100281
2017-10-04T20:19:25.681Z,100279
2017-10-04T20:21:56.667Z,100266
2017-10-04T20:24:26.574Z,100269
2017-10-04T20:26:56.906Z,100265
2017-10-04T20:29:26.776Z,100266
2017-10-04T20:31:57.173Z,100271
2017-10-04T20:34:27.120Z,100264
2017-10-04T20:36:57.340Z,100280
2017-10-04T20:39:27.219Z,100272
2017-10-04T20:41:57.497Z,100273
2017-10-04T20:44:27.588Z,100288
2017-10-04T20:46:57.817Z,100278
2017-10-04T20:49:27.726Z,100276
2017-10-04T20:51:57.598Z,100267
2017-10-04T20:54:27.543Z,100273
2017-10-04T20:56:58.239Z,100259
2017-10-04T20:59:28.493Z,100266
2017-10-04T21:01:58.390Z,100274
2017-10-04T21:04:28.747Z,100257
2017-10-04T21:06:58.629Z,100268
2017-10-04T21:09:28.531Z,100264
2017-10-04T21:11:58.424Z,100267
2017-10-04T21:14:28.448Z,100257
2017-10-04T21:16:58.830Z,100245
2017-10-04T21:19:28.710Z,100241
2017-10-04T21:21:58.614Z,100250
2017-10-04T21:24:28.821Z,100237
2017-10-04T21:26:58.793Z,100228
2017-10-04T21:29:29.058Z,100229
2017-10-04T21:31:58.991Z,100218
2017-10-04T21:34:29.457Z,100225
2017-10-04T21:36:59.339Z,100226
2017-10-04T21:39:29.658Z,100212
2017-10-04T21:41:59.547Z,100234
2017-10-04T21:44:30.015Z,100243
2017-10-04T21:46:59.871Z,100251
2017-10-04T21:49:30.154Z,100240
2017-10-04T21:52:00.168Z,100233
2017-10-04T21:54:30.527Z,100242
2017-10-04T21:57:00.437Z,100242
2017-10-04T21:59:30.750Z,100244
2017-10-04T22:02:00.630Z,100222
2017-10-04T22:04:30.551Z,100225
2017-10-04T22:07:00.422Z,100209
2017-10-04T22:09:30.365Z,100210
2017-10-04T22:12:00.601Z,100205
2017-10-04T22:14:30.483Z,100215
2017-10-04T22:17:00.848Z,100200
2017-10-04T22:19:30.724Z,100194
2017-10-04T22:22:00.615Z,100195
2017-10-04T22:24:30.651Z,100195
2017-10-04T22:27:00.528Z,100197
2017-10-04T22:29:30.830Z,100190
2017-10-04T22:32:00.719Z,100193
2017-10-04T22:34:31.671Z,100198
2017-10-04T22:37:01.620Z,100175
2017-10-04T22:39:31.528Z,100163
2017-10-04T22:42:01.455Z,100158
2017-10-04T22:44:31.664Z,100165
2017-10-04T22:47:01.955Z,100149
2017-10-04T22:49:31.906Z,100146
2017-10-04T22:52:02.296Z,100144
2017-10-04T22:54:32.190Z,100143
2017-10-04T22:57:02.546Z,100135
2017-10-04T22:59:32.430Z,100129
2017-10-04T23:02:02.686Z,100123
2017-10-04T23:04:32.718Z,100129
2017-10-04T23:07:02.622Z,100136
2017-10-04T23:09:32.501Z,100119
2017-10-04T23:12:02.421Z,100125
2017-10-04T23:14:32.372Z,100083
2017-10-04T23:17:02.326Z,100131
2017-10-04T23:19:32.688Z,100123
2017-10-04T23:22:02.562Z,100114
2017-10-04T23:24:32.870Z,100114
2017-10-04T23:27:02.742Z,100121
2017-10-04T23:29:33.047Z,100113
2017-10-04T23:32:02.991Z,100095
2017-10-04T23:34:33.288Z,100097
2017-10-04T23:37:03.158Z,100080
2017-10-04T23:39:33.523Z,100081
2017-10-04T23:42:03.397Z,100083
2017-10-04T23:44:33.666Z,100085
2017-10-04T23:47:03.535Z,100081
2017-10-04T23:49:33.450Z,100075
2017-10-04T23:52:03.342Z,100092
2017-10-04T23:54:33.506Z,100085
2017-10-04T23:57:03.721Z,100069
2017-10-04T23:59:33.680Z,100056
